sensor_id;sensor_type;location;lat;lon;timestamp;pressure;altitude;pressure_sealevel;temperature;humidity
15694;BME280;7947;48.834;9.132;2022-09-30T00:02:52;97291.28;;;9.26;96.29
15694;BME280;7947;48.834;9.132;2022-09-30T00:06:04;97288.41;;;9.23;96.35
15694;BME280;7947;48.834;9.132;2022-09-30T00:09:11;97300.97;;;9.22;96.81
15694;BME280;7947;48.834;9.132;2022-09-30T00:12:18;97292.88;;;9.27;97.20
15694;BME280;7947;48.834;9.132;2022-09-30T00:15:24;97294.19;;;9.30;96.08
15694;BME280;7947;48.834;9.132;2022-09-30T00:18:31;97291.00;;;9.28;95.97
15694;BME280;7947;48.834;9.132;2022-09-30T00:21:39;97293.16;;;9.26;95.83
15694;BME280;7947;48.834;9.132;2022-09-30T00:24:46;97286.75;;;9.27;96.50
15694;BME280;7947;48.834;9.132;2022-09-30T00:27:53;97294.47;;;9.28;96.97
15694;BME280;7947;48.834;9.132;2022-09-30T00:31:00;97295.78;;;9.31;96.65
15694;BME280;7947;48.834;9.132;2022-09-30T00:34:08;97300.84;;;9.32;96.27
15694;BME280;7947;48.834;9.132;2022-09-30T00:37:16;97292.53;;;9.34;96.38
15694;BME280;7947;48.834;9.132;2022-09-30T00:40:23;97302.69;;;9.37;96.55
15694;BME280;7947;48.834;9.132;2022-09-30T00:43:41;97302.16;;;9.35;96.50
15694;BME280;7947;48.834;9.132;2022-09-30T00:46:48;97306.94;;;9.38;96.92
15694;BME280;7947;48.834;9.132;2022-09-30T00:49:57;97298.31;;;9.41;96.58
15694;BME280;7947;48.834;9.132;2022-09-30T00:53:10;97305.78;;;9.44;96.75
15694;BME280;7947;48.834;9.132;2022-09-30T00:56:21;97298.56;;;9.44;97.11
15694;BME280;7947;48.834;9.132;2022-09-30T00:59:31;97304.19;;;9.43;97.22
15694;BME280;7947;48.834;9.132;2022-09-30T01:02:41;97305.88;;;9.39;96.90
15694;BME280;7947;48.834;9.132;2022-09-30T01:05:48;97306.13;;;9.37;97.07
15694;BME280;7947;48.834;9.132;2022-09-30T01:08:56;97306.63;;;9.39;97.09
15694;BME280;7947;48.834;9.132;2022-09-30T01:12:04;97306.31;;;9.46;97.42
15694;BME280;7947;48.834;9.132;2022-09-30T01:15:12;97315.13;;;9.46;97.01
15694;BME280;7947;48.834;9.132;2022-09-30T01:18:25;97316.16;;;9.50;97.14
15694;BME280;7947;48.834;9.132;2022-09-30T01:21:58;97317.94;;;9.55;97.50
15694;BME280;7947;48.834;9.132;2022-09-30T01:29:05;97314.47;;;9.54;96.70
15694;BME280;7947;48.834;9.132;2022-09-30T01:32:27;97314.97;;;9.56;96.86
15694;BME280;7947;48.834;9.132;2022-09-30T01:36:00;97311.22;;;9.57;97.47
15694;BME280;7947;48.834;9.132;2022-09-30T01:39:22;97318.69;;;9.60;97.96
15694;BME280;7947;48.834;9.132;2022-09-30T01:42:39;97317.16;;;9.54;97.19
15694;BME280;7947;48.834;9.132;2022-09-30T01:45:55;97309.78;;;9.46;96.57
15694;BME280;7947;48.834;9.132;2022-09-30T01:49:11;97310.34;;;9.43;96.46
15694;BME280;7947;48.834;9.132;2022-09-30T01:52:23;97320.25;;;9.43;97.28
15694;BME280;7947;48.834;9.132;2022-09-30T01:55:34;97317.56;;;9.43;96.79
15694;BME280;7947;48.834;9.132;2022-09-30T01:58:45;97314.66;;;9.39;97.44
15694;BME280;7947;48.834;9.132;2022-09-30T02:01:58;97330.72;;;9.39;96.93
15694;BME280;7947;48.834;9.132;2022-09-30T02:05:15;97327.75;;;9.41;97.51
15694;BME280;7947;48.834;9.132;2022-09-30T02:08:25;97335.22;;;9.44;97.26
15694;BME280;7947;48.834;9.132;2022-09-30T02:11:35;97338.47;;;9.41;97.46
15694;BME280;7947;48.834;9.132;2022-09-30T02:14:46;97341.66;;;9.43;97.04
15694;BME280;7947;48.834;9.132;2022-09-30T02:17:56;97359.59;;;9.42;97.69
15694;BME280;7947;48.834;9.132;2022-09-30T02:21:08;97352.34;;;9.43;97.69
15694;BME280;7947;48.834;9.132;2022-09-30T02:24:19;97353.75;;;9.40;98.12
15694;BME280;7947;48.834;9.132;2022-09-30T02:27:31;97360.66;;;9.41;97.61
15694;BME280;7947;48.834;9.132;2022-09-30T02:30:49;97359.88;;;9.41;97.60
15694;BME280;7947;48.834;9.132;2022-09-30T02:34:00;97366.03;;;9.41;97.29
15694;BME280;7947;48.834;9.132;2022-09-30T02:37:16;97355.59;;;9.40;97.73
15694;BME280;7947;48.834;9.132;2022-09-30T02:40:29;97358.34;;;9.35;97.64
15694;BME280;7947;48.834;9.132;2022-09-30T02:43:36;97362.38;;;9.32;97.87
15694;BME280;7947;48.834;9.132;2022-09-30T02:46:51;97365.91;;;9.28;97.62
15694;BME280;7947;48.834;9.132;2022-09-30T02:50:02;97366.78;;;9.23;97.28
15694;BME280;7947;48.834;9.132;2022-09-30T02:53:22;97367.63;;;9.19;96.43
15694;BME280;7947;48.834;9.132;2022-09-30T02:56:42;97378.13;;;9.10;95.88
15694;BME280;7947;48.834;9.132;2022-09-30T02:59:53;97372.84;;;9.05;96.10
15694;BME280;7947;48.834;9.132;2022-09-30T03:03:02;97371.81;;;9.01;96.42
15694;BME280;7947;48.834;9.132;2022-09-30T03:06:11;97384.97;;;8.97;96.31
15694;BME280;7947;48.834;9.132;2022-09-30T03:09:23;97395.16;;;8.90;95.69
15694;BME280;7947;48.834;9.132;2022-09-30T03:12:37;97404.56;;;8.88;95.64
15694;BME280;7947;48.834;9.132;2022-09-30T03:15:53;97398.72;;;8.86;95.59
15694;BME280;7947;48.834;9.132;2022-09-30T03:19:18;97390.72;;;8.81;95.90
15694;BME280;7947;48.834;9.132;2022-09-30T03:22:49;97398.66;;;8.91;96.01
15694;BME280;7947;48.834;9.132;2022-09-30T03:26:14;97397.28;;;8.93;95.36
15694;BME280;7947;48.834;9.132;2022-09-30T03:29:29;97404.28;;;8.89;95.45
15694;BME280;7947;48.834;9.132;2022-09-30T03:32:51;97403.47;;;8.89;96.10
15694;BME280;7947;48.834;9.132;2022-09-30T03:36:05;97409.34;;;8.91;96.48
15694;BME280;7947;48.834;9.132;2022-09-30T03:39:20;97401.09;;;8.87;96.51
15694;BME280;7947;48.834;9.132;2022-09-30T03:42:35;97396.56;;;8.88;96.66
15694;BME280;7947;48.834;9.132;2022-09-30T03:45:47;97401.59;;;8.89;96.72
15694;BME280;7947;48.834;9.132;2022-09-30T03:48:57;97395.47;;;8.89;96.96
15694;BME280;7947;48.834;9.132;2022-09-30T03:52:09;97400.28;;;8.87;96.82
15694;BME280;7947;48.834;9.132;2022-09-30T03:55:19;97394.16;;;8.86;96.70
15694;BME280;7947;48.834;9.132;2022-09-30T03:58:29;97410.19;;;8.86;96.74
15694;BME280;7947;48.834;9.132;2022-09-30T04:01:37;97420.94;;;8.81;97.04
15694;BME280;7947;48.834;9.132;2022-09-30T04:04:45;97427.59;;;8.84;97.11
15694;BME280;7947;48.834;9.132;2022-09-30T04:07:50;97421.13;;;8.90;96.85
15694;BME280;7947;48.834;9.132;2022-09-30T04:10:57;97432.59;;;8.90;97.02
15694;BME280;7947;48.834;9.132;2022-09-30T04:14:05;97435.84;;;8.87;96.89
15694;BME280;7947;48.834;9.132;2022-09-30T04:17:18;97437.44;;;8.88;96.98
15694;BME280;7947;48.834;9.132;2022-09-30T04:20:23;97436.88;;;8.91;97.01
15694;BME280;7947;48.834;9.132;2022-09-30T04:23:29;97444.84;;;8.96;97.23
15694;BME280;7947;48.834;9.132;2022-09-30T04:26:33;97443.81;;;8.92;96.58
15694;BME280;7947;48.834;9.132;2022-09-30T04:29:49;97446.81;;;8.86;96.91
15694;BME280;7947;48.834;9.132;2022-09-30T04:32:55;97445.72;;;8.87;96.39
15694;BME280;7947;48.834;9.132;2022-09-30T04:36:16;97444.16;;;8.86;96.42
15694;BME280;7947;48.834;9.132;2022-09-30T04:39:23;97440.16;;;8.83;96.52
15694;BME280;7947;48.834;9.132;2022-09-30T04:42:35;97438.06;;;8.80;96.77
15694;BME280;7947;48.834;9.132;2022-09-30T04:45:44;97445.31;;;8.75;96.64
15694;BME280;7947;48.834;9.132;2022-09-30T04:48:52;97448.00;;;8.75;96.78
15694;BME280;7947;48.834;9.132;2022-09-30T04:52:16;97455.50;;;8.73;96.42
15694;BME280;7947;48.834;9.132;2022-09-30T04:55:26;97463.50;;;8.73;96.51
15694;BME280;7947;48.834;9.132;2022-09-30T04:58:40;97461.44;;;8.65;96.04
15694;BME280;7947;48.834;9.132;2022-09-30T05:01:47;97468.69;;;8.59;95.62
15694;BME280;7947;48.834;9.132;2022-09-30T05:05:01;97463.88;;;8.56;96.08
15694;BME280;7947;48.834;9.132;2022-09-30T05:08:09;97469.22;;;8.61;96.38
15694;BME280;7947;48.834;9.132;2022-09-30T05:11:27;97481.19;;;8.64;96.19
15694;BME280;7947;48.834;9.132;2022-09-30T05:14:33;97486.25;;;8.65;96.51
15694;BME280;7947;48.834;9.132;2022-09-30T05:17:39;97485.75;;;8.63;96.43
15694;BME280;7947;48.834;9.132;2022-09-30T05:20:50;97486.31;;;8.60;96.30
15694;BME280;7947;48.834;9.132;2022-09-30T05:23:59;97490.06;;;8.59;96.33
15694;BME280;7947;48.834;9.132;2022-09-30T05:27:15;97492.75;;;8.59;96.81
15694;BME280;7947;48.834;9.132;2022-09-30T05:30:28;97500.75;;;8.59;96.79
15694;BME280;7947;48.834;9.132;2022-09-30T05:33:44;97499.94;;;8.59;96.72
15694;BME280;7947;48.834;9.132;2022-09-30T05:37:03;97506.34;;;8.58;96.55
15694;BME280;7947;48.834;9.132;2022-09-30T05:40:28;97513.84;;;8.56;96.90
15694;BME280;7947;48.834;9.132;2022-09-30T05:43:57;97511.19;;;8.56;96.75
15694;BME280;7947;48.834;9.132;2022-09-30T05:47:30;97510.06;;;8.62;96.94
15694;BME280;7947;48.834;9.132;2022-09-30T05:51:07;97518.31;;;8.65;96.78
15694;BME280;7947;48.834;9.132;2022-09-30T05:54:56;97519.13;;;8.71;95.93
15694;BME280;7947;48.834;9.132;2022-09-30T05:58:15;97528.94;;;8.80;96.26
15694;BME280;7947;48.834;9.132;2022-09-30T06:01:23;97526.22;;;8.85;96.37
15694;BME280;7947;48.834;9.132;2022-09-30T06:04:35;97524.84;;;8.93;96.58
15694;BME280;7947;48.834;9.132;2022-09-30T06:07:42;97523.66;;;9.04;96.08
15694;BME280;7947;48.834;9.132;2022-09-30T06:10:50;97530.22;;;9.22;94.71
15694;BME280;7947;48.834;9.132;2022-09-30T06:13:57;97531.69;;;9.38;94.58
15694;BME280;7947;48.834;9.132;2022-09-30T06:17:03;97533.16;;;9.54;93.68
15694;BME280;7947;48.834;9.132;2022-09-30T06:20:21;97527.84;;;9.77;93.19
15694;BME280;7947;48.834;9.132;2022-09-30T06:23:31;97526.53;;;9.98;92.76
15694;BME280;7947;48.834;9.132;2022-09-30T06:26:39;97538.53;;;10.30;91.59
15694;BME280;7947;48.834;9.132;2022-09-30T06:29:46;97543.06;;;10.71;90.63
15694;BME280;7947;48.834;9.132;2022-09-30T06:32:56;97547.84;;;11.44;87.93
15694;BME280;7947;48.834;9.132;2022-09-30T06:36:00;97560.69;;;12.06;84.11
15694;BME280;7947;48.834;9.132;2022-09-30T06:39:17;97554.81;;;12.45;81.26
15694;BME280;7947;48.834;9.132;2022-09-30T06:42:25;97557.88;;;12.79;80.08
15694;BME280;7947;48.834;9.132;2022-09-30T06:45:44;97556.78;;;13.38;78.31
15694;BME280;7947;48.834;9.132;2022-09-30T06:49:19;97558.06;;;14.72;73.34
15694;BME280;7947;48.834;9.132;2022-09-30T06:52:54;97554.78;;;15.52;68.90
15694;BME280;7947;48.834;9.132;2022-09-30T06:56:24;97570.63;;;16.34;66.00
15694;BME280;7947;48.834;9.132;2022-09-30T06:59:35;97568.19;;;16.41;64.56
15694;BME280;7947;48.834;9.132;2022-09-30T07:03:03;97574.88;;;15.97;65.11
15694;BME280;7947;48.834;9.132;2022-09-30T07:06:17;97570.03;;;15.13;67.11
15694;BME280;7947;48.834;9.132;2022-09-30T07:09:45;97581.81;;;14.13;70.66
15694;BME280;7947;48.834;9.132;2022-09-30T07:13:05;97577.13;;;13.44;74.12
15694;BME280;7947;48.834;9.132;2022-09-30T07:16:20;97590.03;;;12.98;76.58
15694;BME280;7947;48.834;9.132;2022-09-30T07:19:45;97605.53;;;12.51;79.28
15694;BME280;7947;48.834;9.132;2022-09-30T07:22:54;97609.72;;;12.17;81.05
15694;BME280;7947;48.834;9.132;2022-09-30T07:26:04;97613.72;;;11.87;82.64
15694;BME280;7947;48.834;9.132;2022-09-30T07:29:40;97613.03;;;11.63;83.67
15694;BME280;7947;48.834;9.132;2022-09-30T07:33:20;97609.00;;;11.47;85.36
15694;BME280;7947;48.834;9.132;2022-09-30T07:36:41;97612.28;;;11.44;86.33
15694;BME280;7947;48.834;9.132;2022-09-30T07:39:52;97608.09;;;11.38;87.36
15694;BME280;7947;48.834;9.132;2022-09-30T07:43:41;97612.28;;;11.44;87.23
15694;BME280;7947;48.834;9.132;2022-09-30T07:47:02;97616.19;;;11.33;86.83
15694;BME280;7947;48.834;9.132;2022-09-30T07:50:26;97637.25;;;11.26;87.96
15694;BME280;7947;48.834;9.132;2022-09-30T07:53:43;97633.91;;;11.15;87.82
15694;BME280;7947;48.834;9.132;2022-09-30T07:57:07;97636.88;;;11.14;88.66
15694;BME280;7947;48.834;9.132;2022-09-30T08:00:30;97644.28;;;11.22;88.39
15694;BME280;7947;48.834;9.132;2022-09-30T08:04:07;97645.06;;;11.04;89.37
15694;BME280;7947;48.834;9.132;2022-09-30T08:07:47;97648.63;;;10.99;90.04
15694;BME280;7947;48.834;9.132;2022-09-30T08:11:36;97662.03;;;10.99;90.45
15694;BME280;7947;48.834;9.132;2022-09-30T08:15:15;97661.25;;;10.99;90.73
15694;BME280;7947;48.834;9.132;2022-09-30T08:18:43;97669.28;;;10.99;91.28
15694;BME280;7947;48.834;9.132;2022-09-30T08:22:27;97668.88;;;11.10;90.97
15694;BME280;7947;48.834;9.132;2022-09-30T08:25:50;97676.84;;;11.15;90.15
15694;BME280;7947;48.834;9.132;2022-09-30T08:29:08;97675.69;;;11.21;90.61
15694;BME280;7947;48.834;9.132;2022-09-30T08:32:47;97671.34;;;11.25;89.42
15694;BME280;7947;48.834;9.132;2022-09-30T08:36:46;97675.78;;;11.53;89.79
15694;BME280;7947;48.834;9.132;2022-09-30T08:40:38;97681.50;;;11.84;89.62
15694;BME280;7947;48.834;9.132;2022-09-30T08:44:26;97676.94;;;11.98;88.16
15694;BME280;7947;48.834;9.132;2022-09-30T08:48:10;97674.41;;;12.20;87.98
15694;BME280;7947;48.834;9.132;2022-09-30T08:51:50;97664.50;;;12.34;86.66
15694;BME280;7947;48.834;9.132;2022-09-30T08:55:40;97675.16;;;12.53;85.15
15694;BME280;7947;48.834;9.132;2022-09-30T08:59:02;97673.47;;;12.70;83.88
15694;BME280;7947;48.834;9.132;2022-09-30T09:02:19;97674.19;;;13.03;83.36
15694;BME280;7947;48.834;9.132;2022-09-30T09:05:53;97674.09;;;13.44;82.59
15694;BME280;7947;48.834;9.132;2022-09-30T09:09:32;97686.56;;;13.76;79.81
15694;BME280;7947;48.834;9.132;2022-09-30T09:12:58;97677.19;;;13.95;79.71
15694;BME280;7947;48.834;9.132;2022-09-30T09:16:20;97669.88;;;14.18;79.52
15694;BME280;7947;48.834;9.132;2022-09-30T09:20:13;97673.22;;;14.45;76.57
15694;BME280;7947;48.834;9.132;2022-09-30T09:23:48;97674.31;;;14.44;75.50
15694;BME280;7947;48.834;9.132;2022-09-30T09:27:12;97675.44;;;14.43;76.17
15694;BME280;7947;48.834;9.132;2022-09-30T09:30:37;97678.91;;;14.44;75.21
15694;BME280;7947;48.834;9.132;2022-09-30T09:33:53;97678.16;;;14.43;75.54
15694;BME280;7947;48.834;9.132;2022-09-30T09:37:33;97670.13;;;14.69;74.63
15694;BME280;7947;48.834;9.132;2022-09-30T09:41:16;97677.38;;;14.91;72.59
15694;BME280;7947;48.834;9.132;2022-09-30T09:44:28;97681.41;;;15.19;72.16
15694;BME280;7947;48.834;9.132;2022-09-30T09:47:42;97685.63;;;15.42;70.25
15694;BME280;7947;48.834;9.132;2022-09-30T09:50:57;97684.34;;;15.48;67.25
15694;BME280;7947;48.834;9.132;2022-09-30T09:54:20;97684.50;;;15.52;67.47
15694;BME280;7947;48.834;9.132;2022-09-30T09:57:41;97679.91;;;15.61;66.64
15694;BME280;7947;48.834;9.132;2022-09-30T10:00:53;97684.66;;;15.72;66.99
15694;BME280;7947;48.834;9.132;2022-09-30T10:04:50;97688.63;;;15.83;66.41
15694;BME280;7947;48.834;9.132;2022-09-30T10:08:09;97697.41;;;15.89;67.78
15694;BME280;7947;48.834;9.132;2022-09-30T10:11:20;97694.22;;;15.87;66.47
15694;BME280;7947;48.834;9.132;2022-09-30T10:14:30;97696.44;;;16.02;66.26
15694;BME280;7947;48.834;9.132;2022-09-30T10:17:40;97687.50;;;16.01;62.93
15694;BME280;7947;48.834;9.132;2022-09-30T10:20:55;97686.72;;;16.09;60.76
15694;BME280;7947;48.834;9.132;2022-09-30T10:24:18;97689.09;;;16.19;61.08
15694;BME280;7947;48.834;9.132;2022-09-30T10:27:30;97694.00;;;16.26;60.13
15694;BME280;7947;48.834;9.132;2022-09-30T10:30:43;97687.47;;;16.27;58.54
15694;BME280;7947;48.834;9.132;2022-09-30T10:33:56;97691.59;;;16.33;59.35
15694;BME280;7947;48.834;9.132;2022-09-30T10:37:13;97692.06;;;16.35;60.80
15694;BME280;7947;48.834;9.132;2022-09-30T10:40:23;97688.09;;;16.41;59.72
15694;BME280;7947;48.834;9.132;2022-09-30T10:43:38;97698.59;;;16.43;60.81
15694;BME280;7947;48.834;9.132;2022-09-30T10:46:49;97699.06;;;16.45;59.97
15694;BME280;7947;48.834;9.132;2022-09-30T10:50:04;97701.16;;;16.39;59.76
15694;BME280;7947;48.834;9.132;2022-09-30T10:53:16;97699.53;;;16.47;61.73
15694;BME280;7947;48.834;9.132;2022-09-30T10:56:44;97688.72;;;16.38;60.42
15694;BME280;7947;48.834;9.132;2022-09-30T10:59:57;97686.47;;;16.40;60.88
15694;BME280;7947;48.834;9.132;2022-09-30T11:03:09;97698.09;;;16.41;61.88
15694;BME280;7947;48.834;9.132;2022-09-30T11:06:20;97704.63;;;16.57;60.50
15694;BME280;7947;48.834;9.132;2022-09-30T11:09:34;97690.91;;;16.53;56.12
15694;BME280;7947;48.834;9.132;2022-09-30T11:12:44;97693.34;;;16.55;56.45
15694;BME280;7947;48.834;9.132;2022-09-30T11:16:00;97686.28;;;16.62;55.76
15694;BME280;7947;48.834;9.132;2022-09-30T11:19:10;97696.19;;;16.58;54.80
15694;BME280;7947;48.834;9.132;2022-09-30T11:22:31;97691.72;;;16.54;55.11
15694;BME280;7947;48.834;9.132;2022-09-30T11:25:45;97686.16;;;16.59;54.26
15694;BME280;7947;48.834;9.132;2022-09-30T11:29:06;97695.84;;;16.60;54.51
15694;BME280;7947;48.834;9.132;2022-09-30T11:32:36;97687.13;;;16.54;54.87
15694;BME280;7947;48.834;9.132;2022-09-30T11:35:50;97697.13;;;16.62;52.83
15694;BME280;7947;48.834;9.132;2022-09-30T11:39:18;97694.38;;;16.71;54.09
15694;BME280;7947;48.834;9.132;2022-09-30T11:42:37;97698.34;;;16.73;51.66
15694;BME280;7947;48.834;9.132;2022-09-30T11:46:05;97691.97;;;16.78;52.17
15694;BME280;7947;48.834;9.132;2022-09-30T11:49:43;97696.25;;;16.79;51.89
15694;BME280;7947;48.834;9.132;2022-09-30T11:53:06;97688.97;;;17.00;54.37
15694;BME280;7947;48.834;9.132;2022-09-30T11:56:26;97691.28;;;17.19;53.47
15694;BME280;7947;48.834;9.132;2022-09-30T11:59:41;97699.91;;;17.41;48.63
15694;BME280;7947;48.834;9.132;2022-09-30T12:02:52;97699.81;;;17.58;47.34
15694;BME280;7947;48.834;9.132;2022-09-30T12:06:03;97704.59;;;17.61;46.66
15694;BME280;7947;48.834;9.132;2022-09-30T12:09:20;97691.19;;;17.77;47.72
15694;BME280;7947;48.834;9.132;2022-09-30T12:12:27;97688.09;;;17.87;46.06
15694;BME280;7947;48.834;9.132;2022-09-30T12:15:40;97691.72;;;17.91;46.57
15694;BME280;7947;48.834;9.132;2022-09-30T12:18:56;97692.31;;;17.96;46.62
15694;BME280;7947;48.834;9.132;2022-09-30T12:22:05;97688.56;;;18.10;48.24
15694;BME280;7947;48.834;9.132;2022-09-30T12:25:18;97687.19;;;18.16;47.55
15694;BME280;7947;48.834;9.132;2022-09-30T12:28:31;97686.66;;;17.89;46.54
15694;BME280;7947;48.834;9.132;2022-09-30T12:40:09;97688.63;;;18.01;48.48
15694;BME280;7947;48.834;9.132;2022-09-30T12:47:37;97680.66;;;18.49;45.77
15694;BME280;7947;48.834;9.132;2022-09-30T12:50:54;97687.47;;;18.67;44.25
15694;BME280;7947;48.834;9.132;2022-09-30T12:58:36;97695.84;;;17.76;46.71
15694;BME280;7947;48.834;9.132;2022-09-30T13:02:28;97691.97;;;17.36;49.80
15694;BME280;7947;48.834;9.132;2022-09-30T13:06:01;97695.63;;;17.11;49.50
15694;BME280;7947;48.834;9.132;2022-09-30T13:09:34;97691.34;;;17.01;49.74
15694;BME280;7947;48.834;9.132;2022-09-30T13:13:14;97693.38;;;17.13;51.93
15694;BME280;7947;48.834;9.132;2022-09-30T13:24:11;97691.59;;;17.17;53.24
15694;BME280;7947;48.834;9.132;2022-09-30T13:27:34;97689.28;;;17.07;53.20
15694;BME280;7947;48.834;9.132;2022-09-30T13:31:12;97696.63;;;16.98;54.01
15694;BME280;7947;48.834;9.132;2022-09-30T13:34:22;97699.22;;;16.94;54.09
15694;BME280;7947;48.834;9.132;2022-09-30T13:37:41;97702.94;;;16.81;54.75
15694;BME280;7947;48.834;9.132;2022-09-30T13:40:51;97699.47;;;16.72;54.40
15694;BME280;7947;48.834;9.132;2022-09-30T13:44:11;97702.69;;;16.66;53.95
15694;BME280;7947;48.834;9.132;2022-09-30T13:47:26;97696.97;;;16.59;55.82
15694;BME280;7947;48.834;9.132;2022-09-30T13:50:37;97693.16;;;16.51;54.31
15694;BME280;7947;48.834;9.132;2022-09-30T13:53:51;97704.13;;;16.46;56.57
15694;BME280;7947;48.834;9.132;2022-09-30T13:57:04;97708.28;;;16.44;56.02
15694;BME280;7947;48.834;9.132;2022-09-30T14:00:14;97715.31;;;16.36;55.07
15694;BME280;7947;48.834;9.132;2022-09-30T14:03:37;97715.81;;;16.30;54.17
15694;BME280;7947;48.834;9.132;2022-09-30T14:07:01;97713.59;;;16.23;53.85
15694;BME280;7947;48.834;9.132;2022-09-30T14:10:29;97721.41;;;16.16;54.75
15694;BME280;7947;48.834;9.132;2022-09-30T14:13:49;97720.28;;;16.17;56.05
15694;BME280;7947;48.834;9.132;2022-09-30T14:17:19;97715.19;;;16.15;56.33
15694;BME280;7947;48.834;9.132;2022-09-30T14:20:45;97721.41;;;16.07;56.85
15694;BME280;7947;48.834;9.132;2022-09-30T14:23:58;97725.84;;;16.03;57.15
15694;BME280;7947;48.834;9.132;2022-09-30T14:27:19;97727.28;;;16.01;58.96
15694;BME280;7947;48.834;9.132;2022-09-30T14:30:38;97721.41;;;15.99;60.68
15694;BME280;7947;48.834;9.132;2022-09-30T14:33:49;97716.16;;;16.02;58.55
15694;BME280;7947;48.834;9.132;2022-09-30T14:36:57;97721.88;;;16.01;57.40
15694;BME280;7947;48.834;9.132;2022-09-30T14:40:08;97710.75;;;16.02;58.05
15694;BME280;7947;48.834;9.132;2022-09-30T14:43:16;97720.78;;;16.02;56.96
15694;BME280;7947;48.834;9.132;2022-09-30T14:46:29;97723.63;;;16.05;59.14
15694;BME280;7947;48.834;9.132;2022-09-30T14:49:36;97723.00;;;16.08;58.54
15694;BME280;7947;48.834;9.132;2022-09-30T14:52:43;97712.19;;;16.08;57.80
15694;BME280;7947;48.834;9.132;2022-09-30T14:55:52;97719.31;;;16.13;57.78
15694;BME280;7947;48.834;9.132;2022-09-30T14:58:59;97714.88;;;16.17;57.76
15694;BME280;7947;48.834;9.132;2022-09-30T15:02:12;97708.19;;;16.23;56.96
15694;BME280;7947;48.834;9.132;2022-09-30T15:05:18;97708.81;;;16.20;58.10
15694;BME280;7947;48.834;9.132;2022-09-30T15:08:22;97711.84;;;16.18;59.48
15694;BME280;7947;48.834;9.132;2022-09-30T15:11:25;97702.47;;;16.16;59.61
15694;BME280;7947;48.834;9.132;2022-09-30T15:14:29;97706.94;;;16.12;56.94
15694;BME280;7947;48.834;9.132;2022-09-30T15:17:36;97708.53;;;16.04;57.06
15694;BME280;7947;48.834;9.132;2022-09-30T15:20:39;97710.75;;;15.94;57.93
15694;BME280;7947;48.834;9.132;2022-09-30T15:23:45;97709.97;;;15.85;58.40
15694;BME280;7947;48.834;9.132;2022-09-30T15:26:51;97701.38;;;15.83;59.53
15694;BME280;7947;48.834;9.132;2022-09-30T15:29:57;97707.56;;;15.83;58.71
15694;BME280;7947;48.834;9.132;2022-09-30T15:33:03;97703.44;;;15.86;59.40
15694;BME280;7947;48.834;9.132;2022-09-30T15:36:12;97708.53;;;15.79;59.78
15694;BME280;7947;48.834;9.132;2022-09-30T15:39:20;97716.00;;;15.73;61.14
15694;BME280;7947;48.834;9.132;2022-09-30T15:42:30;97716.63;;;15.70;62.19
15694;BME280;7947;48.834;9.132;2022-09-30T15:45:38;97716.94;;;15.69;60.87
15694;BME280;7947;48.834;9.132;2022-09-30T15:48:47;97714.41;;;15.64;60.57
15694;BME280;7947;48.834;9.132;2022-09-30T15:51:50;97729.19;;;15.58;62.40
15694;BME280;7947;48.834;9.132;2022-09-30T15:54:53;97723.16;;;15.52;63.40
15694;BME280;7947;48.834;9.132;2022-09-30T15:57:56;97723.16;;;15.52;61.22
15694;BME280;7947;48.834;9.132;2022-09-30T16:01:13;97721.03;;;15.41;59.87
15694;BME280;7947;48.834;9.132;2022-09-30T16:04:23;97728.47;;;15.35;63.58
15694;BME280;7947;48.834;9.132;2022-09-30T16:07:28;97723.38;;;15.25;67.43
15694;BME280;7947;48.834;9.132;2022-09-30T16:10:36;97726.38;;;15.15;70.10
15694;BME280;7947;48.834;9.132;2022-09-30T16:13:41;97729.50;;;15.00;71.18
15694;BME280;7947;48.834;9.132;2022-09-30T16:16:48;97726.28;;;14.89;71.82
15694;BME280;7947;48.834;9.132;2022-09-30T16:19:56;97737.66;;;14.78;72.58
15694;BME280;7947;48.834;9.132;2022-09-30T16:23:00;97733.47;;;14.63;72.93
15694;BME280;7947;48.834;9.132;2022-09-30T16:26:27;97742.75;;;14.48;73.42
15694;BME280;7947;48.834;9.132;2022-09-30T16:29:31;97740.13;;;14.35;73.74
15694;BME280;7947;48.834;9.132;2022-09-30T16:32:41;97737.63;;;14.16;74.01
15694;BME280;7947;48.834;9.132;2022-09-30T16:35:46;97741.63;;;14.05;74.48
15694;BME280;7947;48.834;9.132;2022-09-30T16:38:49;97741.91;;;13.95;75.15
15694;BME280;7947;48.834;9.132;2022-09-30T16:41:52;97738.94;;;13.83;75.60
15694;BME280;7947;48.834;9.132;2022-09-30T16:44:55;97741.38;;;13.71;76.05
15694;BME280;7947;48.834;9.132;2022-09-30T16:47:59;97737.41;;;13.55;76.40
15694;BME280;7947;48.834;9.132;2022-09-30T16:51:05;97731.84;;;13.38;76.77
15694;BME280;7947;48.834;9.132;2022-09-30T16:54:08;97739.97;;;13.24;76.98
15694;BME280;7947;48.834;9.132;2022-09-30T16:57:13;97748.47;;;13.18;76.80
15694;BME280;7947;48.834;9.132;2022-09-30T17:00:16;97747.34;;;13.05;76.97
15694;BME280;7947;48.834;9.132;2022-09-30T17:03:19;97749.94;;;12.97;77.58
15694;BME280;7947;48.834;9.132;2022-09-30T17:06:27;97757.38;;;12.86;77.32
15694;BME280;7947;48.834;9.132;2022-09-30T17:09:31;97763.16;;;12.80;77.47
15694;BME280;7947;48.834;9.132;2022-09-30T17:12:34;97764.75;;;12.67;77.74
15694;BME280;7947;48.834;9.132;2022-09-30T17:15:36;97759.53;;;12.57;77.97
15694;BME280;7947;48.834;9.132;2022-09-30T17:18:39;97763.00;;;12.44;77.93
15694;BME280;7947;48.834;9.132;2022-09-30T17:21:43;97763.06;;;12.39;78.17
15694;BME280;7947;48.834;9.132;2022-09-30T17:24:46;97759.69;;;12.33;78.45
15694;BME280;7947;48.834;9.132;2022-09-30T17:27:49;97763.47;;;12.32;78.63
15694;BME280;7947;48.834;9.132;2022-09-30T17:30:52;97779.75;;;12.22;78.75
15694;BME280;7947;48.834;9.132;2022-09-30T17:33:55;97776.22;;;12.08;79.31
15694;BME280;7947;48.834;9.132;2022-09-30T17:36:59;97767.81;;;11.96;79.91
15694;BME280;7947;48.834;9.132;2022-09-30T17:40:02;97779.50;;;11.87;79.72
15694;BME280;7947;48.834;9.132;2022-09-30T17:43:26;97776.69;;;11.78;80.01
15694;BME280;7947;48.834;9.132;2022-09-30T17:46:38;97777.34;;;11.70;80.66
15694;BME280;7947;48.834;9.132;2022-09-30T17:49:42;97780.63;;;11.67;80.77
15694;BME280;7947;48.834;9.132;2022-09-30T17:52:46;97782.28;;;11.58;80.62
15694;BME280;7947;48.834;9.132;2022-09-30T17:56:01;97789.13;;;11.50;80.61
15694;BME280;7947;48.834;9.132;2022-09-30T17:59:04;97788.91;;;11.47;80.81
15694;BME280;7947;48.834;9.132;2022-09-30T18:02:08;97796.44;;;11.45;81.30
15694;BME280;7947;48.834;9.132;2022-09-30T18:05:11;97787.94;;;11.38;81.10